Time;durP1;ratioP1;P1;durP2;ratioP2;P2;SDS_P1;SDS_P2;PMS_P1;PMS_P2;Temp;Humidity;BMP_temperature;BMP_pressure;BME280_temperature;BME280_humidity;BME280_pressure;Samples;Min_cycle;Max_cycle;Signal;HPM_P1;HPM_P2
2022/11/08 00:01:47;;;;;;;14.30;4.55;;;12.30;99.90;;;;;;5010536;28;20096;-80
2022/11/08 00:04:14;;;;;;;15.30;4.15;;;12.40;99.90;;;;;;4987615;28;20089;-80
2022/11/08 00:14:54;;;;;;;19.63;4.50;;;12.30;99.90;;;;;;5032114;28;20192;-78
2022/11/08 00:17:21;;;;;;;19.52;4.63;;;12.30;99.90;;;;;;5014302;28;20083;-78
2022/11/08 00:19:47;;;;;;;20.35;4.78;;;12.30;99.90;;;;;;5036419;28;20048;-78
2022/11/08 00:22:14;;;;;;;19.27;4.70;;;12.50;99.90;;;;;;5050621;28;20053;-77
2022/11/08 00:24:39;;;;;;;16.98;4.03;;;12.30;99.90;;;;;;5024661;28;20171;-78
2022/11/08 00:27:17;;;;;;;20.38;4.20;;;12.40;99.90;;;;;;5015348;28;20509;-77
2022/11/08 00:29:43;;;;;;;16.75;4.60;;;12.40;99.90;;;;;;5028598;28;20063;-79
2022/11/08 00:32:15;;;;;;;22.48;4.65;;;12.40;99.90;;;;;;5012713;28;20059;-77
2022/11/08 00:34:40;;;;;;;17.15;4.00;;;12.40;99.90;;;;;;5031951;28;20037;-79
2022/11/08 00:37:06;;;;;;;19.75;4.13;;;12.40;99.90;;;;;;5015940;28;20781;-78
2022/11/08 00:39:33;;;;;;;20.02;4.85;;;12.60;99.90;;;;;;5013491;28;20053;-79
2022/11/08 00:41:58;;;;;;;14.57;4.30;;;12.40;99.90;;;;;;5031658;28;20049;-77
2022/11/08 00:44:24;;;;;;;17.58;4.35;;;12.50;99.90;;;;;;5030131;28;20041;-77
2022/11/08 00:46:50;;;;;;;16.50;4.10;;;12.40;99.90;;;;;;5015247;28;20477;-77
2022/11/08 00:49:16;;;;;;;15.00;4.60;;;12.40;99.90;;;;;;5030304;28;20359;-77
2022/11/08 00:51:42;;;;;;;17.60;4.20;;;12.40;99.90;;;;;;5030328;28;20065;-77
2022/11/08 00:54:11;;;;;;;15.45;4.63;;;12.40;99.90;;;;;;5011269;28;20052;-78
2022/11/08 00:56:36;;;;;;;17.60;4.28;;;12.40;99.90;;;;;;4981301;28;20053;-77
2022/11/08 00:59:02;;;;;;;20.10;5.10;;;12.40;99.90;;;;;;5008359;28;20054;-79
2022/11/08 01:01:27;;;;;;;18.42;4.32;;;12.40;99.90;;;;;;5011564;28;20050;-77
2022/11/08 01:03:53;;;;;;;15.43;4.35;;;12.40;99.90;;;;;;4992718;28;20069;-77
2022/11/08 01:06:21;;;;;;;16.77;4.05;;;12.40;99.90;;;;;;4999916;28;20163;-77
2022/11/08 01:08:48;;;;;;;21.80;4.90;;;12.30;99.90;;;;;;4998038;28;20049;-78
2022/11/08 01:11:25;;;;;;;17.55;4.30;;;12.30;99.90;;;;;;5011387;28;20139;-77
2022/11/08 01:13:54;;;;;;;14.63;4.03;;;12.30;99.90;;;;;;5012535;28;20547;-79
2022/11/08 01:16:23;;;;;;;18.63;3.67;;;12.30;99.90;;;;;;5019259;28;20049;-77
2022/11/08 01:18:50;;;;;;;16.38;4.15;;;12.40;99.90;;;;;;5026787;28;20166;-79
2022/11/08 01:21:16;;;;;;;21.02;4.38;;;12.30;99.90;;;;;;5047473;28;20060;-78
2022/11/08 01:23:44;;;;;;;16.70;4.10;;;12.30;99.90;;;;;;5048424;28;20048;-77
2022/11/08 01:26:16;;;;;;;16.63;3.47;;;12.40;99.90;;;;;;5024039;28;20506;-81
2022/11/08 01:28:41;;;;;;;15.48;4.05;;;12.30;99.90;;;;;;5025011;28;20049;-79
2022/11/08 01:31:17;;;;;;;14.43;4.25;;;12.30;99.90;;;;;;4995803;28;20372;-79
2022/11/08 01:33:43;;;;;;;14.20;3.53;;;12.30;99.90;;;;;;5011790;28;20049;-77
2022/11/08 01:36:10;;;;;;;16.48;3.88;;;12.30;99.90;;;;;;5022473;28;20033;-80
2022/11/08 01:38:36;;;;;;;13.85;3.55;;;12.20;99.90;;;;;;5004421;28;20076;-78
2022/11/08 01:41:02;;;;;;;17.10;4.07;;;12.20;99.90;;;;;;5028825;28;20048;-80
2022/11/08 01:43:54;;;;;;;17.15;3.80;;;12.10;99.90;;;;;;5029071;28;20050;-77
2022/11/08 01:46:40;;;;;;;17.88;4.10;;;12.10;99.90;;;;;;5019427;28;20041;-77
2022/11/08 01:49:18;;;;;;;15.38;3.72;;;12.10;99.90;;;;;;5027700;28;20518;-77
2022/11/08 01:51:50;;;;;;;13.00;3.55;;;12.10;99.90;;;;;;5029171;28;20546;-77
2022/11/08 01:54:24;;;;;;;14.15;3.90;;;12.10;99.90;;;;;;5028434;28;20394;-78
2022/11/08 01:56:50;;;;;;;13.30;3.30;;;12.10;99.90;;;;;;4995304;28;20602;-78
2022/11/08 01:59:18;;;;;;;18.95;4.25;;;12.00;99.90;;;;;;5008945;28;20053;-79
2022/11/08 02:01:44;;;;;;;20.50;4.28;;;12.00;99.90;;;;;;4976867;28;20488;-78
2022/11/08 02:04:11;;;;;;;11.13;3.78;;;12.00;99.90;;;;;;4991527;28;20058;-78
2022/11/08 02:06:38;;;;;;;15.85;3.78;;;11.90;99.90;;;;;;4995823;28;20057;-77
2022/11/08 02:09:08;;;;;;;15.48;3.80;;;11.80;99.90;;;;;;5008605;28;20064;-77
2022/11/08 02:11:34;;;;;;;18.27;3.65;;;11.80;99.90;;;;;;5011889;28;20049;-77
2022/11/08 02:14:01;;;;;;;16.58;3.70;;;11.90;99.90;;;;;;4994526;28;20076;-78
2022/11/08 02:16:27;;;;;;;14.68;3.30;;;11.90;99.90;;;;;;4999615;28;20053;-77
2022/11/08 02:18:53;;;;;;;13.43;3.75;;;11.90;99.90;;;;;;5025748;28;20056;-77
2022/11/08 02:21:37;;;;;;;14.27;3.90;;;11.90;99.90;;;;;;5046444;28;20402;-78
2022/11/08 02:24:08;;;;;;;15.23;3.50;;;11.90;99.90;;;;;;5043928;28;20388;-77
2022/11/08 02:26:35;;;;;;;14.60;3.80;;;11.90;99.90;;;;;;5014847;28;20403;-78
2022/11/08 02:29:24;;;;;;;13.23;3.83;;;11.80;99.90;;;;;;5026723;28;20045;-79
2022/11/08 02:31:50;;;;;;;16.55;3.45;;;11.80;99.90;;;;;;5028759;28;20050;-77
2022/11/08 02:34:16;;;;;;;15.43;3.45;;;11.80;99.90;;;;;;5028414;28;20482;-78
2022/11/08 02:36:45;;;;;;;13.18;3.28;;;11.70;99.90;;;;;;5015260;28;20564;-81
2022/11/08 02:39:10;;;;;;;15.88;3.45;;;11.70;99.90;;;;;;5028785;28;20114;-78
2022/11/08 02:41:36;;;;;;;13.75;3.65;;;11.70;99.90;;;;;;5029750;28;20052;-78
2022/11/08 02:44:02;;;;;;;13.60;3.30;;;11.70;99.90;;;;;;5028707;28;20081;-79
2022/11/08 02:46:27;;;;;;;13.55;3.53;;;11.60;99.90;;;;;;5014853;28;20049;-80
2022/11/08 02:48:53;;;;;;;17.95;3.97;;;11.60;99.90;;;;;;5024559;28;20145;-78
2022/11/08 02:51:19;;;;;;;13.73;3.40;;;11.60;99.90;;;;;;5013339;28;20491;-77
2022/11/08 02:53:44;;;;;;;14.68;3.80;;;11.50;99.90;;;;;;5006967;28;20053;-79
2022/11/08 02:56:10;;;;;;;16.52;3.70;;;11.50;99.90;;;;;;5016159;28;20045;-77
2022/11/08 02:58:36;;;;;;;12.35;3.50;;;11.40;99.90;;;;;;5021954;28;20049;-78
2022/11/08 03:01:02;;;;;;;10.80;3.40;;;11.50;99.90;;;;;;5010772;28;20045;-80
2022/11/08 03:03:28;;;;;;;15.25;3.53;;;11.40;99.90;;;;;;5027747;28;20046;-77
2022/11/08 03:05:55;;;;;;;10.63;3.17;;;11.40;99.90;;;;;;5029521;28;20037;-77
2022/11/08 03:08:21;;;;;;;11.75;3.47;;;11.30;99.90;;;;;;5011028;28;20049;-77
2022/11/08 03:10:47;;;;;;;15.57;3.55;;;11.20;99.90;;;;;;5012822;28;20129;-80
2022/11/08 03:13:13;;;;;;;18.30;3.20;;;11.20;99.90;;;;;;5006859;28;20525;-77
2022/11/08 03:15:39;;;;;;;17.30;3.38;;;11.20;99.90;;;;;;4975190;28;20073;-78
2022/11/08 03:18:05;;;;;;;14.68;3.58;;;11.20;99.90;;;;;;4992252;28;20518;-77
2022/11/08 03:20:31;;;;;;;11.45;3.53;;;11.10;99.90;;;;;;5031418;28;20049;-80
2022/11/08 03:23:01;;;;;;;15.90;3.42;;;11.20;99.90;;;;;;5047838;28;20514;-78
2022/11/08 03:25:27;;;;;;;13.85;3.42;;;11.20;99.90;;;;;;5015816;28;20053;-77
2022/11/08 03:27:53;;;;;;;13.48;4.03;;;11.10;99.90;;;;;;5012561;28;20046;-78
2022/11/08 03:30:19;;;;;;;13.10;3.45;;;11.10;99.90;;;;;;5027896;28;20045;-78
2022/11/08 03:32:45;;;;;;;16.95;3.70;;;11.10;99.90;;;;;;5028108;28;20479;-78
2022/11/08 03:35:12;;;;;;;16.33;3.78;;;11.10;99.90;;;;;;5019557;28;20105;-77
2022/11/08 03:37:38;;;;;;;12.75;3.30;;;11.10;99.90;;;;;;4993338;28;20726;-77
2022/11/08 03:40:04;;;;;;;16.52;4.00;;;11.10;99.90;;;;;;5009194;28;20144;-81
2022/11/08 03:42:30;;;;;;;13.65;3.47;;;11.00;99.90;;;;;;5012565;28;20088;-77
2022/11/08 03:44:55;;;;;;;12.20;3.83;;;11.10;99.90;;;;;;5028211;28;20069;-77
2022/11/08 03:47:21;;;;;;;13.93;3.78;;;11.00;99.90;;;;;;5011689;28;20053;-80
2022/11/08 03:49:47;;;;;;;14.20;3.75;;;11.10;99.90;;;;;;5028267;28;20136;-77
2022/11/08 03:52:12;;;;;;;14.55;4.05;;;11.00;99.90;;;;;;5027566;28;20152;-78
2022/11/08 03:54:38;;;;;;;10.25;3.67;;;10.90;99.90;;;;;;5026908;28;20084;-77
2022/11/08 03:57:04;;;;;;;15.52;3.85;;;11.10;99.90;;;;;;4992060;28;20404;-77
2022/11/08 03:59:29;;;;;;;14.13;3.80;;;10.90;99.90;;;;;;5011522;28;20093;-77
2022/11/08 04:01:55;;;;;;;14.63;3.50;;;10.80;99.90;;;;;;5012593;28;20125;-77
2022/11/08 04:04:20;;;;;;;16.38;3.70;;;10.80;99.90;;;;;;5011598;28;20482;-77
2022/11/08 04:06:46;;;;;;;19.00;4.18;;;10.80;99.90;;;;;;4996992;28;20085;-77
2022/11/08 04:09:12;;;;;;;12.70;3.85;;;10.60;99.90;;;;;;5011918;28;20045;-77
2022/11/08 04:17:06;;;;;;;13.27;3.92;;;10.60;99.90;;;;;;5014809;28;20052;-77
2022/11/08 04:22:15;;;;;;;21.08;4.30;;;10.50;99.90;;;;;;5030736;28;20203;-78
2022/11/08 04:24:41;;;;;;;14.77;3.95;;;10.60;99.90;;;;;;5028673;28;20128;-80
2022/11/08 04:27:07;;;;;;;17.92;4.88;;;10.40;99.90;;;;;;4997096;28;20091;-77
2022/11/08 04:29:32;;;;;;;12.77;4.00;;;10.40;99.90;;;;;;5031069;28;20049;-78
2022/11/08 04:31:58;;;;;;;15.07;4.60;;;10.50;99.90;;;;;;5030102;28;20390;-77
2022/11/08 04:34:24;;;;;;;14.30;3.70;;;10.40;99.90;;;;;;5009258;28;20042;-77
2022/11/08 04:36:49;;;;;;;11.97;3.27;;;10.40;99.90;;;;;;5015719;28;20049;-80
2022/11/08 04:39:15;;;;;;;13.97;4.67;;;10.40;99.90;;;;;;5022218;28;20053;-77
2022/11/08 04:41:40;;;;;;;15.98;4.22;;;10.40;99.90;;;;;;5013993;28;20462;-78
2022/11/08 04:44:07;;;;;;;19.93;4.77;;;10.50;99.90;;;;;;5027128;28;20060;-77
2022/11/08 04:46:32;;;;;;;14.67;4.00;;;10.50;99.90;;;;;;5009860;28;20049;-78
2022/11/08 04:48:59;;;;;;;18.83;4.83;;;10.60;99.90;;;;;;5028854;28;20168;-78
2022/11/08 04:51:28;;;;;;;13.70;4.20;;;10.60;99.90;;;;;;5028354;28;20045;-77
2022/11/08 04:53:56;;;;;;;12.57;3.67;;;10.60;99.90;;;;;;5010515;28;20107;-77
2022/11/08 04:56:22;;;;;;;15.23;3.97;;;10.60;99.90;;;;;;5013065;28;20509;-77
2022/11/08 04:58:53;;;;;;;14.90;4.45;;;10.70;99.90;;;;;;5024278;28;20118;-78
2022/11/08 05:01:21;;;;;;;15.35;5.13;;;10.70;99.90;;;;;;5011001;28;20052;-77
2022/11/08 05:03:49;;;;;;;18.83;5.83;;;10.70;99.90;;;;;;5027804;28;20045;-77
2022/11/08 05:06:21;;;;;;;13.48;4.72;;;10.60;99.90;;;;;;4988193;28;20502;-78
2022/11/08 05:08:47;;;;;;;25.27;9.00;;;10.70;99.90;;;;;;5025682;28;20535;-78
2022/11/08 05:11:16;;;;;;;15.35;4.30;;;10.70;99.90;;;;;;5012161;28;20076;-77
2022/11/08 05:13:42;;;;;;;14.27;4.93;;;10.60;99.90;;;;;;5010324;28;20435;-77
2022/11/08 05:16:14;;;;;;;17.63;5.97;;;10.60;99.90;;;;;;5004498;28;20057;-78
2022/11/08 05:18:40;;;;;;;16.08;4.97;;;10.60;99.90;;;;;;5003911;28;20046;-77
2022/11/08 05:23:50;;;;;;;21.93;9.17;;;10.70;99.90;;;;;;5047291;28;20051;-77
2022/11/08 05:26:17;;;;;;;18.95;7.28;;;10.70;99.90;;;;;;5019572;28;20041;-79
2022/11/08 05:28:43;;;;;;;23.07;8.80;;;10.70;99.90;;;;;;5007243;28;20138;-78
2022/11/08 05:31:09;;;;;;;15.57;6.73;;;10.60;99.90;;;;;;5030008;28;20483;-77
2022/11/08 05:33:35;;;;;;;22.95;7.40;;;10.60;99.90;;;;;;5029418;28;20053;-77
2022/11/08 05:36:06;;;;;;;30.33;14.07;;;10.70;99.90;;;;;;5022787;28;20125;-78
2022/11/08 05:38:32;;;;;;;19.27;5.50;;;10.60;99.90;;;;;;5007692;28;20037;-77
2022/11/08 05:41:08;;;;;;;12.63;4.50;;;10.60;99.90;;;;;;5028345;28;20203;-77
2022/11/08 05:43:33;;;;;;;15.68;5.25;;;10.60;99.90;;;;;;5010889;28;20050;-78
2022/11/08 05:45:59;;;;;;;11.18;4.07;;;10.70;99.90;;;;;;5030279;28;20048;-77
2022/11/08 05:48:25;;;;;;;13.70;4.57;;;10.70;99.90;;;;;;5013949;28;20049;-77
2022/11/08 05:50:51;;;;;;;14.90;5.57;;;10.80;99.90;;;;;;5012438;28;20330;-77
2022/11/08 05:53:17;;;;;;;12.68;4.28;;;10.60;99.90;;;;;;5028430;28;20144;-77
2022/11/08 05:55:42;;;;;;;15.73;3.80;;;10.60;99.90;;;;;;5008205;28;20225;-77
2022/11/08 05:58:08;;;;;;;9.10;3.47;;;10.50;99.90;;;;;;4992724;28;20061;-78
2022/11/08 06:00:34;;;;;;;10.90;2.93;;;10.50;99.90;;;;;;5010462;28;20549;-77
2022/11/08 06:03:04;;;;;;;12.10;4.73;;;10.50;99.90;;;;;;5015983;28;20055;-77
2022/11/08 06:05:30;;;;;;;10.50;3.10;;;10.50;99.90;;;;;;5030247;28;20092;-78
2022/11/08 06:07:55;;;;;;;8.82;3.05;;;10.40;99.90;;;;;;5012578;28;20057;-80
2022/11/08 06:10:21;;;;;;;13.07;3.35;;;10.40;99.90;;;;;;4983888;28;20054;-78
2022/11/08 06:12:47;;;;;;;10.85;3.65;;;10.40;99.90;;;;;;5006690;28;20041;-77
2022/11/08 06:15:13;;;;;;;12.88;3.80;;;10.30;99.90;;;;;;5017032;28;20048;-77
2022/11/08 06:17:38;;;;;;;9.63;3.30;;;10.40;99.90;;;;;;4992091;28;20057;-77
2022/11/08 06:20:06;;;;;;;11.87;3.70;;;10.40;99.90;;;;;;5033635;28;20053;-77
2022/11/08 06:22:33;;;;;;;15.23;3.70;;;10.40;99.90;;;;;;5026808;28;20046;-80
2022/11/08 06:24:59;;;;;;;11.30;3.20;;;10.30;99.90;;;;;;5027364;28;20137;-77
2022/11/08 06:27:25;;;;;;;14.75;3.42;;;10.20;99.90;;;;;;5010354;28;20088;-77
2022/11/08 06:29:51;;;;;;;9.68;3.03;;;10.20;99.90;;;;;;5026828;28;20049;-77
2022/11/08 06:32:16;;;;;;;10.18;3.35;;;10.20;99.90;;;;;;5007556;28;20042;-79
2022/11/08 06:34:44;;;;;;;8.95;3.08;;;10.20;99.90;;;;;;4989142;28;20049;-77
2022/11/08 06:37:10;;;;;;;8.50;3.10;;;10.30;99.90;;;;;;5010560;28;20391;-77
2022/11/08 06:39:36;;;;;;;12.35;3.40;;;10.20;99.90;;;;;;5025696;28;20096;-78
2022/11/08 06:42:02;;;;;;;13.50;3.60;;;10.30;99.90;;;;;;5028578;28;20049;-77
2022/11/08 06:44:27;;;;;;;10.90;3.58;;;10.40;99.90;;;;;;5010421;28;20506;-81
2022/11/08 06:46:56;;;;;;;14.10;3.25;;;10.40;99.90;;;;;;5013288;28;20060;-78
2022/11/08 06:49:22;;;;;;;12.02;3.13;;;10.40;99.90;;;;;;5026511;28;20386;-77
2022/11/08 06:51:49;;;;;;;12.27;3.08;;;10.40;99.90;;;;;;5027221;28;20088;-77
2022/11/08 06:54:15;;;;;;;11.38;3.17;;;10.40;99.90;;;;;;5001677;28;20053;-78
2022/11/08 06:56:40;;;;;;;8.55;2.88;;;10.40;99.90;;;;;;4994199;28;20575;-77
2022/11/08 06:59:07;;;;;;;8.68;2.75;;;10.40;99.90;;;;;;5025461;28;20061;-80
2022/11/08 07:01:33;;;;;;;9.15;2.85;;;10.50;99.90;;;;;;5029224;28;20049;-77
2022/11/08 07:03:59;;;;;;;8.40;2.63;;;10.50;99.90;;;;;;5011023;28;20050;-77
2022/11/08 07:06:24;;;;;;;14.27;2.85;;;10.50;99.90;;;;;;5017321;28;20584;-77
2022/11/08 07:08:50;;;;;;;9.20;3.17;;;10.50;99.90;;;;;;5025186;28;20049;-77
2022/11/08 07:11:16;;;;;;;9.18;2.80;;;10.50;99.90;;;;;;5009201;28;20045;-79
2022/11/08 07:13:41;;;;;;;10.30;2.75;;;10.60;99.90;;;;;;4989678;28;20042;-77
2022/11/08 07:16:08;;;;;;;7.25;3.33;;;10.70;99.90;;;;;;5004481;28;20113;-78
2022/11/08 07:18:34;;;;;;;9.05;3.08;;;10.60;99.90;;;;;;4999561;28;20104;-77
2022/11/08 07:21:00;;;;;;;8.60;3.13;;;10.80;99.90;;;;;;5039608;28;20068;-78
2022/11/08 07:23:27;;;;;;;12.18;3.42;;;10.80;99.90;;;;;;5047176;28;20049;-77
2022/11/08 07:25:53;;;;;;;7.78;3.25;;;11.00;99.90;;;;;;5011691;28;20284;-77
2022/11/08 07:28:19;;;;;;;11.47;3.33;;;10.90;99.90;;;;;;4994491;28;20069;-77
2022/11/08 07:30:47;;;;;;;12.30;3.65;;;11.00;99.90;;;;;;5028330;28;20041;-77
2022/11/08 07:33:13;;;;;;;11.52;2.95;;;11.00;99.90;;;;;;5012111;28;20104;-79
2022/11/08 07:35:39;;;;;;;11.00;3.23;;;11.10;99.90;;;;;;5032825;28;20068;-77
2022/11/08 07:38:05;;;;;;;8.38;3.28;;;11.10;99.90;;;;;;5012706;28;20041;-80
2022/11/08 07:40:33;;;;;;;9.35;2.90;;;11.10;99.90;;;;;;5023754;28;20039;-81
2022/11/08 07:42:59;;;;;;;7.00;2.77;;;11.30;99.90;;;;;;5028799;28;20506;-77
2022/11/08 07:45:25;;;;;;;7.90;3.17;;;11.20;99.90;;;;;;5029888;28;20059;-78
2022/11/08 07:48:02;;;;;;;10.25;3.50;;;11.30;99.90;;;;;;5013972;28;20037;-77
2022/11/08 07:50:28;;;;;;;7.93;3.05;;;11.30;99.90;;;;;;5030157;28;20044;-79
2022/11/08 07:52:54;;;;;;;10.35;3.50;;;11.40;99.90;;;;;;5023587;28;20429;-79
2022/11/08 07:55:20;;;;;;;9.38;2.80;;;11.40;99.90;;;;;;5019952;28;20076;-81
2022/11/08 07:57:46;;;;;;;8.60;2.70;;;11.40;99.90;;;;;;5007054;28;20463;-77
2022/11/08 08:00:12;;;;;;;7.82;2.97;;;11.50;99.90;;;;;;5019137;28;20065;-79
2022/11/08 08:02:38;;;;;;;8.30;2.90;;;11.50;99.90;;;;;;5025203;28;20045;-80
2022/11/08 08:05:05;;;;;;;7.10;3.10;;;11.50;99.90;;;;;;5022613;28;20111;-77
2022/11/08 08:07:30;;;;;;;8.90;2.85;;;11.50;99.90;;;;;;5004458;28;20053;-78
2022/11/08 08:09:56;;;;;;;10.15;2.92;;;11.60;99.90;;;;;;5026168;28;20426;-78
2022/11/08 08:12:21;;;;;;;9.65;2.67;;;11.60;99.90;;;;;;5002298;28;20043;-78
2022/11/08 08:14:47;;;;;;;10.52;2.90;;;11.70;99.90;;;;;;5032240;28;20051;-79
2022/11/08 08:17:13;;;;;;;8.40;3.30;;;11.70;99.90;;;;;;5013424;28;20055;-79
2022/11/08 08:19:38;;;;;;;9.93;3.55;;;11.70;99.90;;;;;;5022390;28;20122;-81
2022/11/08 08:22:04;;;;;;;10.13;4.13;;;11.80;99.90;;;;;;5026212;28;20036;-77
2022/11/08 08:24:30;;;;;;;7.18;2.90;;;11.80;99.90;;;;;;5003375;28;20033;-78
2022/11/08 08:26:55;;;;;;;9.80;3.85;;;11.90;99.90;;;;;;5016857;28;20046;-77
2022/11/08 08:29:21;;;;;;;8.20;4.55;;;11.70;99.90;;;;;;5031495;28;20063;-77
2022/11/08 08:31:47;;;;;;;7.75;2.70;;;11.60;99.90;;;;;;5010570;28;20046;-77
2022/11/08 08:34:14;;;;;;;8.95;2.67;;;11.70;99.90;;;;;;4991594;28;20053;-78
2022/11/08 08:36:41;;;;;;;7.90;2.78;;;11.70;99.90;;;;;;5016334;28;20052;-77
2022/11/08 08:39:06;;;;;;;7.05;2.38;;;11.70;99.90;;;;;;5020994;28;20487;-78
2022/11/08 08:41:32;;;;;;;10.43;2.60;;;11.70;99.90;;;;;;5015945;28;20030;-80
2022/11/08 08:43:58;;;;;;;7.63;2.40;;;11.80;99.90;;;;;;5014022;28;20104;-77
2022/11/08 08:46:23;;;;;;;4.30;2.13;;;11.80;99.90;;;;;;5004125;28;20053;-77
2022/11/08 08:48:49;;;;;;;8.27;2.65;;;11.90;99.90;;;;;;5011303;28;20104;-77
2022/11/08 08:51:15;;;;;;;6.80;2.95;;;11.90;99.90;;;;;;5021947;28;20045;-77
2022/11/08 08:53:40;;;;;;;7.03;3.40;;;11.80;99.90;;;;;;5028450;28;20118;-80
2022/11/08 08:56:07;;;;;;;10.05;4.25;;;11.90;99.90;;;;;;5031630;28;20466;-81
2022/11/08 08:58:33;;;;;;;10.73;4.93;;;11.90;99.90;;;;;;5013832;28;20165;-78
2022/11/08 09:01:00;;;;;;;5.63;2.28;;;11.90;99.90;;;;;;5019627;28;20077;-77
2022/11/08 09:03:26;;;;;;;8.07;3.72;;;12.00;99.90;;;;;;5009598;28;20037;-81
2022/11/08 09:05:51;;;;;;;12.00;4.95;;;12.10;99.90;;;;;;5027638;28;20037;-79
2022/11/08 09:08:17;;;;;;;4.97;2.30;;;12.20;99.90;;;;;;5010574;28;20465;-81
2022/11/08 09:10:43;;;;;;;6.60;2.78;;;12.30;99.90;;;;;;5041067;28;20053;-80
2022/11/08 09:13:09;;;;;;;5.25;2.40;;;12.30;99.90;;;;;;5025277;28;20128;-78
2022/11/08 09:15:35;;;;;;;7.35;2.88;;;12.30;99.90;;;;;;5004102;28;20144;-77
2022/11/08 09:18:00;;;;;;;7.63;2.85;;;12.30;99.90;;;;;;5012930;28;20441;-78
2022/11/08 09:20:26;;;;;;;5.32;3.10;;;12.50;99.90;;;;;;5014832;28;20116;-80
2022/11/08 09:22:52;;;;;;;6.63;2.38;;;12.40;99.90;;;;;;5020355;28;20068;-79
2022/11/08 09:25:17;;;;;;;8.30;2.53;;;12.40;99.90;;;;;;5028016;28;20061;-77
2022/11/08 09:27:43;;;;;;;7.70;2.47;;;12.40;99.90;;;;;;5003299;28;20041;-77
2022/11/08 09:30:09;;;;;;;6.57;2.80;;;12.50;99.90;;;;;;5019987;28;20407;-77
2022/11/08 09:32:35;;;;;;;4.90;2.35;;;12.60;99.90;;;;;;5017533;28;20087;-78
2022/11/08 09:35:01;;;;;;;4.95;2.63;;;12.60;99.90;;;;;;5023770;28;20037;-80
2022/11/08 09:37:28;;;;;;;4.55;2.33;;;12.60;99.90;;;;;;5005760;28;20049;-78
2022/11/08 09:39:53;;;;;;;5.05;2.30;;;12.60;99.90;;;;;;5023780;28;20068;-78
2022/11/08 09:42:49;;;;;;;6.97;3.13;;;12.70;99.90;;;;;;5018437;28;20566;-77
2022/11/08 09:45:23;;;;;;;8.63;3.03;;;12.70;99.90;;;;;;5018643;28;20045;-78
2022/11/08 09:47:58;;;;;;;8.38;3.30;;;12.70;99.90;;;;;;4989132;28;20049;-79
2022/11/08 09:50:36;;;;;;;6.88;2.90;;;12.80;99.90;;;;;;5016275;28;20045;-77
2022/11/08 09:53:25;;;;;;;8.23;3.25;;;12.90;99.90;;;;;;5000320;28;20050;-79
2022/11/08 09:56:09;;;;;;;7.93;2.55;;;12.90;99.90;;;;;;5007118;28;20049;-81
2022/11/08 09:59:00;;;;;;;8.13;2.67;;;13.00;99.90;;;;;;4984431;28;20083;-78
2022/11/08 10:01:29;;;;;;;;;;;13.00;99.90;;;;;;4985153;28;20053;-78
2022/11/08 10:03:57;;;;;;;7.85;3.10;;;13.20;99.90;;;;;;5013855;28;20045;-79
2022/11/08 10:06:34;;;;;;;7.65;4.80;;;13.10;99.90;;;;;;5000142;28;20497;-78
2022/11/08 10:09:15;;;;;;;5.90;2.78;;;13.10;99.90;;;;;;5013198;28;20060;-77
2022/11/08 10:12:04;;;;;;;7.18;3.90;;;13.10;99.90;;;;;;4997588;28;20396;-78
2022/11/08 10:14:55;;;;;;;5.07;2.10;;;13.10;99.90;;;;;;5010235;28;20058;-78
2022/11/08 10:17:38;;;;;;;3.40;1.80;;;13.10;99.90;;;;;;4984503;28;20085;-77
2022/11/08 10:20:20;;;;;;;5.13;2.00;;;13.20;99.90;;;;;;5016796;28;20053;-79
2022/11/08 10:23:01;;;;;;;;;;;13.10;99.90;;;;;;5015976;28;20061;-82
2022/11/08 10:25:43;;;;;;;3.70;1.70;;;13.20;99.90;;;;;;5022269;28;19925;-77
2022/11/08 10:28:16;;;;;;;4.63;1.95;;;13.20;99.90;;;;;;4950005;28;20389;-77
2022/11/08 10:30:46;;;;;;;5.00;2.10;;;13.20;99.90;;;;;;5000450;28;20053;-78
2022/11/08 10:33:36;;;;;;;4.60;2.10;;;13.20;99.90;;;;;;5023173;28;20124;-79
2022/11/08 10:36:32;;;;;;;3.50;1.80;;;13.30;99.90;;;;;;5011283;28;20056;-77
2022/11/08 10:39:07;;;;;;;3.72;1.80;;;13.30;99.90;;;;;;4965631;28;20104;-79
2022/11/08 10:41:59;;;;;;;5.53;1.83;;;13.30;99.90;;;;;;5022607;28;20463;-78
2022/11/08 10:44:27;;;;;;;5.85;1.80;;;13.20;99.90;;;;;;4998907;28;20052;-78
2022/11/08 10:46:55;;;;;;;3.22;1.52;;;13.10;99.90;;;;;;5007399;28;20045;-78
2022/11/08 10:49:28;;;;;;;3.75;2.00;;;13.10;99.90;;;;;;5020888;28;20363;-81
2022/11/08 10:52:16;;;;;;;5.65;2.00;;;13.10;99.90;;;;;;5004906;28;20050;-79
2022/11/08 10:54:45;;;;;;;2.78;1.48;;;13.10;99.90;;;;;;5000530;28;20056;-78
2022/11/08 10:57:14;;;;;;;5.65;1.75;;;13.10;99.90;;;;;;5004138;28;20061;-78
2022/11/08 10:59:40;;;;;;;4.97;1.70;;;13.10;99.90;;;;;;5002836;28;20053;-78
2022/11/08 11:02:41;;;;;;;4.90;2.00;;;13.10;99.90;;;;;;5020501;28;20088;-79
2022/11/08 11:05:32;;;;;;;5.32;2.00;;;13.10;99.90;;;;;;4968778;28;20058;-80
2022/11/08 11:08:03;;;;;;;3.35;1.60;;;13.20;99.90;;;;;;4998810;28;20557;-78
2022/11/08 11:10:34;;;;;;;5.45;1.58;;;13.30;99.90;;;;;;5025748;28;20232;-79
2022/11/08 11:13:01;;;;;;;4.25;1.75;;;13.30;99.90;;;;;;5025160;28;20052;-78
2022/11/08 11:15:42;;;;;;;5.72;1.77;;;13.30;99.90;;;;;;5000981;28;20049;-78
2022/11/08 11:18:18;;;;;;;4.13;1.70;;;13.40;99.90;;;;;;5001424;28;20045;-78
2022/11/08 11:21:07;;;;;;;4.53;1.60;;;13.40;99.90;;;;;;5010291;28;20127;-80
2022/11/08 11:23:42;;;;;;;5.65;1.80;;;13.40;99.90;;;;;;5024904;28;20132;-79
2022/11/08 11:26:20;;;;;;;4.43;1.88;;;13.40;99.90;;;;;;5016729;28;20052;-79
2022/11/08 11:29:04;;;;;;;7.72;1.67;;;13.50;99.90;;;;;;5021998;28;20057;-81
2022/11/08 11:31:35;;;;;;;4.63;1.88;;;13.50;99.90;;;;;;5024708;28;20049;-78
2022/11/08 11:34:16;;;;;;;3.65;1.67;;;13.70;99.90;;;;;;5027036;28;20408;-79
2022/11/08 11:36:46;;;;;;;4.23;1.70;;;13.80;99.90;;;;;;5008607;28;20993;-78
2022/11/08 11:39:21;;;;;;;3.03;1.40;;;13.90;99.90;;;;;;5029145;28;20357;-78
2022/11/08 11:41:52;;;;;;;4.95;1.70;;;13.90;99.90;;;;;;5027597;28;20111;-78
2022/11/08 11:44:35;;;;;;;7.03;1.88;;;13.90;99.90;;;;;;5027961;28;20045;-79
2022/11/08 11:47:06;;;;;;;5.63;1.90;;;13.80;99.90;;;;;;5010253;28;20065;-78
2022/11/08 11:49:34;;;;;;;5.55;1.83;;;13.80;99.90;;;;;;5016884;28;20056;-79
2022/11/08 11:52:00;;;;;;;4.35;1.70;;;13.80;99.90;;;;;;5024333;28;20144;-79
2022/11/08 11:54:33;;;;;;;6.60;1.77;;;13.80;99.90;;;;;;5018298;28;20551;-78
2022/11/08 11:57:02;;;;;;;3.63;1.50;;;13.90;99.90;;;;;;5011523;28;20107;-79
2022/11/08 11:59:58;;;;;;;4.05;1.80;;;13.90;99.90;;;;;;5028247;28;20414;-79
2022/11/08 12:02:57;;;;;;;5.72;1.83;;;14.00;99.90;;;;;;5022539;28;20135;-80
2022/11/08 12:05:47;;;;;;;5.25;1.60;;;14.10;99.90;;;;;;5008961;28;20049;-78
2022/11/08 12:08:25;;;;;;;6.53;1.67;;;14.20;99.90;;;;;;4993763;28;20107;-79
2022/11/08 12:10:50;;;;;;;4.75;1.92;;;14.20;99.90;;;;;;5024601;28;20045;-78
2022/11/08 12:13:40;;;;;;;3.95;1.60;;;14.10;99.90;;;;;;5027474;28;20234;-78
2022/11/08 12:16:26;;;;;;;7.03;1.50;;;14.10;99.90;;;;;;5020137;28;20111;-82
2022/11/08 12:19:09;;;;;;;3.85;1.67;;;14.10;99.90;;;;;;5020077;28;20384;-80
2022/11/08 12:22:03;;;;;;;4.65;1.65;;;14.20;99.90;;;;;;5034177;23;20519;-79
2022/11/08 12:24:49;;;;;;;3.03;1.70;;;14.40;99.90;;;;;;4958512;28;20065;-79
2022/11/08 12:27:41;;;;;;;4.53;1.73;;;14.50;99.90;;;;;;4969668;28;20054;-79
2022/11/08 12:30:47;;;;;;;5.00;1.70;;;14.50;99.90;;;;;;4975236;28;20077;-79
2022/11/08 12:33:37;;;;;;;4.10;1.77;;;14.50;99.90;;;;;;4985545;28;20547;-79
2022/11/08 12:36:13;;;;;;;6.38;1.70;;;14.50;99.90;;;;;;4966500;28;20053;-79
2022/11/08 12:38:49;;;;;;;4.35;1.50;;;14.40;99.90;;;;;;4983703;28;20078;-79
2022/11/08 12:41:33;;;;;;;3.78;1.83;;;14.40;99.90;;;;;;4986940;28;20059;-78
2022/11/08 12:44:17;;;;;;;4.07;1.60;;;14.40;99.90;;;;;;4970732;28;20132;-78
2022/11/08 12:46:57;;;;;;;4.55;1.58;;;14.40;99.90;;;;;;4975253;28;20483;-78
2022/11/08 12:49:48;;;;;;;4.22;1.60;;;14.40;99.90;;;;;;4986216;28;20416;-78
2022/11/08 12:52:42;;;;;;;10.40;5.60;;;14.40;99.90;;;;;;4976621;28;20054;-78
2022/11/08 12:55:24;;;;;;;13.07;5.38;;;14.30;99.90;;;;;;4983050;28;20057;-78
2022/11/08 12:57:53;;;;;;;12.77;6.18;;;14.20;99.90;;;;;;4969731;28;20136;-79
2022/11/08 13:00:19;;;;;;;5.13;1.90;;;14.20;99.90;;;;;;4972617;28;20052;-78
2022/11/08 13:03:25;;;;;;;9.68;5.07;;;14.20;99.90;;;;;;4983554;28;20575;-80
2022/11/08 13:06:06;;;;;;;7.50;2.97;;;14.30;99.90;;;;;;4957688;28;20054;-82
2022/11/08 13:08:45;;;;;;;4.70;2.22;;;14.20;99.90;;;;;;4965041;28;20050;-79
2022/11/08 13:11:20;;;;;;;5.50;2.67;;;14.20;99.90;;;;;;4983357;28;20054;-78
2022/11/08 13:13:53;;;;;;;4.35;1.48;;;14.20;99.90;;;;;;4986157;28;20054;-78
2022/11/08 13:16:19;;;;;;;4.88;2.15;;;14.20;99.90;;;;;;4975535;28;20488;-78